Latest Weather Observations for Perisher Valley

IDN60801

Issued at 10:03 pm EST Tuesday 4 August 2020 (issued every 10 minutes, with the page automatically refreshed every 10 minutes)

About weather observations | Map of weather stations | Latest weather observations for NSW | Other Formats
Station Details ID: 071075 Name: PERISHER VALLEY AWS Lat: -36.41 Lon: 148.41 Height: 1738.0 m
Data from the previous 72 hours. | See also: Recent months at Perisher Valley
Date/Time
EST
Temp
°C
App
Temp
°C
Dew
Point
°C
Rel
Hum
%
Delta-T
°C
Wind Press
QNH
hPa
Press
MSL
hPa
Rain since
9am
mm
Dir  Spd
km/h
Gust
km/h
Spd
kts
Gust
kts
04/10:00pm -6.3 -12.4 -7.4 92 0.1 W 17 43 9 23 - - 6.4
04/09:30pm -6.4 -12.5 -7.5 92 0.1 W 17 33 9 18 - - 6.4
04/09:00pm -6.4 -13.8 -7.8 90 0.2 WNW 24 44 13 24 - - 6.4
04/08:30pm -6.0 -14.2 -7.7 88 0.3 WNW 28 52 15 28 - - 6.4
04/08:16pm -6.0 -14.2 -7.7 88 0.3 WNW 28 54 15 29 - - 6.4
04/08:00pm -5.9 -13.3 -7.6 88 0.3 WNW 24 46 13 25 - - 6.4
04/07:30pm -5.9 -13.4 -8.3 83 0.5 WNW 24 48 13 26 - - 6.4
04/07:24pm -5.9 -14.1 -7.6 88 0.3 W 28 52 15 28 - - 6.4
04/07:00pm -5.9 -11.6 -7.6 88 0.3 W 15 37 8 20 - - 6.4
04/06:30pm -5.9 -13.7 -7.3 90 0.2 WNW 26 48 14 26 - - 6.4
04/06:00pm -5.8 -12.4 -7.0 91 0.1 WNW 20 41 11 22 - - 6.4
04/05:30pm -5.7 -14.6 -7.2 89 0.2 WNW 32 54 17 29 - - 6.4
04/05:24pm -5.8 -14.0 -7.3 89 0.2 WNW 28 54 15 29 - - 6.4
04/05:00pm -5.5 -12.9 -7.6 85 0.4 WNW 24 54 13 29 - - 6.4
04/04:30pm -5.3 -13.5 -7.6 84 0.5 WNW 28 50 15 27 - - 6.4
04/04:26pm -5.3 -13.9 -7.6 84 0.5 WNW 30 50 16 27 - - 6.4
04/04:00pm -5.0 -12.9 -8.6 76 0.9 W 26 50 14 27 - - 6.4
04/03:31pm -4.9 -14.4 -7.8 80 0.7 W 35 59 19 32 - - 6.4
04/03:30pm -4.9 -14.4 -8.0 79 0.8 W 35 54 19 29 - - 6.4
04/03:00pm -4.8 -14.3 -8.0 78 0.8 W 35 65 19 35 - - 6.4
04/02:30pm -4.4 -13.3 -7.3 80 0.7 W 32 54 17 29 - - 6.4
04/02:00pm -4.4 -13.0 -7.8 77 0.9 W 30 52 16 28 - - 6.4
04/01:48pm -4.4 -12.6 -7.6 78 0.8 W 28 50 15 27 - - 6.4
04/01:30pm -4.0 -11.9 -8.3 72 1.2 W 26 48 14 26 - - 6.4
04/01:00pm -3.7 -12.8 -7.1 77 0.9 W 33 54 18 29 - - 6.4
04/12:31pm -4.0 -12.1 -7.1 79 0.8 W 28 56 15 30 - - 6.4
04/12:30pm -3.9 -11.6 -7.0 79 0.8 W 26 56 14 30 - - 6.4
04/12:08pm -3.6 -11.6 -5.4 87 0.5 W 28 56 15 30 - - 6.4
04/12:00pm -3.5 -11.1 -5.6 85 0.6 W 26 52 14 28 - - 6.4
04/11:36am -2.9 -10.9 -5.7 81 0.8 W 28 56 15 30 - - 6.4
04/11:30am -3.1 -10.3 -5.7 82 0.7 W 24 46 13 25 - - 6.4
04/11:00am -2.7 -10.9 -4.0 91 0.3 W 30 54 16 29 - - 6.4
04/10:51am -2.2 -8.5 -4.4 85 0.7 W 20 54 11 29 - - 6.4
04/10:30am -1.8 -7.4 -2.6 94 0.2 W 17 41 9 22 - - 5.4
04/10:00am -1.6 -7.5 -2.4 94 0.2 W 19 43 10 23 - - 3.2
04/09:49am -1.4 -8.6 -2.4 93 0.3 W 26 46 14 25 - - 2.6
04/09:30am -0.7 -5.4 -1.5 94 0.3 W 13 32 7 17 - - 2.2
04/09:00am -0.4 -2.5 -1.0 96 0.2 CALM 0 0 0 0 - - 9.2
04/08:30am -0.5 -2.6 -0.5 100 0.0 CALM 0 0 0 0 - - 8.2
04/08:00am -0.5 -2.6 -0.5 100 0.0 CALM 0 2 0 1 - - 7.8
04/07:30am -0.1 -2.1 -0.1 100 0.0 CALM 0 0 0 0 - - 7.6
04/07:00am 0.1 -1.9 0.1 100 0.0 CALM 0 4 0 2 - - 7.6
04/06:30am 0.3 -1.6 0.3 100 0.0 CALM 0 0 0 0 - - 7.6
04/06:00am 0.2 -1.8 0.2 100 0.0 CALM 0 0 0 0 - - 6.8
04/05:30am 0.1 -1.9 0.1 100 0.0 CALM 0 9 0 5 - - 6.2
04/05:00am 0.2 -3.1 0.1 99 0.0 NW 7 28 4 15 - - 4.8
04/04:30am 0.4 -4.0 0.1 98 0.1 W 13 44 7 24 - - 4.4
04/04:00am 0.4 -5.1 0.3 99 0.0 W 19 43 10 23 - - 3.8
04/03:30am 0.7 -3.7 0.3 97 0.2 W 13 37 7 20 - - 2.0
04/03:00am 0.8 -3.6 0.2 96 0.2 W 13 37 7 20 - - 1.0
04/02:30am 1.2 -4.0 -0.1 91 0.5 W 17 46 9 25 - - 0.0
04/02:00am 1.5 -3.7 -0.1 89 0.7 W 17 43 9 23 - - 0.0
04/01:30am 1.6 -3.6 -0.2 88 0.7 W 17 43 9 23 - - 0.0
04/01:00am 1.8 -3.9 -0.6 84 1.0 W 19 37 10 20 - - 0.0
04/12:30am 1.6 -2.9 -0.5 86 0.9 W 13 39 7 21 - - 0.0
04/12:00am 1.6 -4.6 -0.2 88 0.7 W 22 46 12 25 - - 0.0
 
Date/Time
EST
Temp
°C
App
Temp
°C
Dew
Point
°C
Rel
Hum
%
Delta-T
°C
Wind Press
QNH
hPa
Press
MSL
hPa
Rain since
9am
mm
Dir  Spd
km/h
Gust
km/h
Spd
kts
Gust
kts
03/11:30pm 1.8 -4.4 -0.1 87 0.8 W 22 46 12 25 - - 0.0
03/11:00pm 1.6 -4.9 0.1 90 0.6 W 24 52 13 28 - - 0.0
03/10:30pm 1.6 -6.0 0.3 91 0.5 W 30 57 16 31 - - 0.0
03/10:00pm 1.5 -6.2 -0.3 88 0.7 W 30 50 16 27 - - 0.0
03/09:30pm 1.5 -6.6 0.0 90 0.6 W 32 54 17 29 - - 0.0
03/09:00pm 1.3 -7.0 0.0 91 0.5 W 33 59 18 32 - - 0.0
03/08:30pm 1.4 -5.9 -0.2 89 0.7 W 28 52 15 28 - - 0.0
03/08:00pm 1.2 -7.1 -0.3 90 0.6 W 33 54 18 29 - - 0.0
03/07:30pm 1.2 -6.9 -0.6 88 0.7 W 32 57 17 31 - - 0.0
03/07:09pm 1.3 -6.1 -0.8 86 0.8 W 28 46 15 25 - - 0.0
03/07:00pm 1.4 -5.3 -0.8 85 0.9 W 24 50 13 27 - - 0.0
03/06:30pm 1.6 -6.8 -1.1 82 1.1 W 33 54 18 29 - - 0.0
03/06:00pm 1.6 -6.2 -0.5 86 0.9 W 30 52 16 28 - - 0.0
03/05:30pm 1.6 -5.8 -0.6 85 0.9 W 28 46 15 25 - - 0.0
03/05:00pm 1.7 -6.6 -0.5 85 0.9 W 33 63 18 34 - - 0.0
03/04:30pm 1.9 -5.9 -0.7 83 1.1 W 30 54 16 29 - - 0.0
03/04:01pm 2.0 -5.4 -0.9 81 1.2 W 28 50 15 27 - - 0.0
03/04:00pm 2.0 -5.1 -0.9 81 1.2 W 26 50 14 27 - - 0.0
03/03:30pm 2.2 -5.7 -1.4 77 1.4 W 30 54 16 29 - - 0.0
03/03:06pm 2.3 -5.2 -1.5 76 1.5 W 28 59 15 32 - - 0.0
03/03:00pm 2.1 -4.7 -1.5 77 1.4 W 24 50 13 27 - - 0.0
03/02:30pm 2.3 -4.9 -1.7 75 1.6 W 26 52 14 28 - - 0.0
03/02:00pm 2.4 -4.0 -1.6 75 1.6 W 22 44 12 24 - - 0.0
03/01:30pm 2.3 -3.7 -1.7 75 1.6 W 20 43 11 23 - - 0.0
03/01:00pm 1.9 -4.1 -1.5 78 1.4 W 20 44 11 24 - - 0.0
03/12:30pm 2.0 -4.0 -1.4 78 1.4 W 20 43 11 23 - - 0.0
03/12:00pm 2.7 -3.2 -2.2 70 1.9 W 19 41 10 22 - - 0.0
03/11:30am 2.6 -2.9 -2.3 70 1.9 W 17 41 9 22 - - 0.0
03/11:00am 2.6 -3.0 -2.7 68 2.1 W 17 35 9 19 - - 0.0
03/10:30am 2.7 -1.4 -2.8 67 2.1 WNW 9 28 5 15 - - 0.0
03/10:00am 2.4 -1.3 -2.7 69 2.0 NNW 7 24 4 13 - - 0.0
03/09:30am 2.0 -1.7 -2.7 71 1.8 W 7 26 4 14 - - 0.0
03/09:00am 1.7 -2.1 -3.4 69 2.0 NW 7 22 4 12 - - 0.0
03/08:30am 1.5 -2.2 -2.8 73 1.7 NNW 7 17 4 9 - - 0.0
03/08:00am 0.8 -2.8 -3.3 74 1.6 N 6 13 3 7 - - 0.0
03/07:30am 0.1 -3.2 -4.5 71 1.7 N 4 13 2 7 - - 0.0
03/07:00am -0.3 -4.3 -8.0 56 2.5 WNW 6 11 3 6 - - 0.0
03/06:30am -1.6 -5.3 -8.1 61 2.0 W 4 7 2 4 - - 0.0
03/06:00am -2.5 -5.7 -7.4 69 1.5 W 2 4 1 2 - - 0.0
03/05:30am -2.5 -5.6 -6.3 75 1.2 WNW 2 2 1 1 - - 0.0
03/05:00am -1.9 -5.0 -5.7 75 1.2 W 2 4 1 2 - - 0.0
03/04:30am -1.2 -4.2 -5.6 72 1.5 W 2 6 1 3 - - 0.0
03/04:00am -0.1 -4.0 -6.1 64 2.1 WNW 6 7 3 4 - - 0.0
03/03:30am -2.8 -6.1 -8.6 64 1.7 WNW 2 6 1 3 - - 0.0
03/03:00am 0.0 -3.4 -9.4 49 3.0 WNW 2 4 1 2 - - 0.0
03/02:30am 1.6 -2.6 -9.9 42 3.8 WNW 6 9 3 5 - - 0.0
03/02:00am 1.7 -2.5 -10.4 40 3.9 W 6 9 3 5 - - 0.0
03/01:30am 2.4 -2.0 -10.8 37 4.3 W 7 15 4 8 - - 0.0
03/01:00am 3.3 -1.9 -11.0 34 4.7 W 11 15 6 8 - - 0.0
03/12:30am 2.8 -2.0 -10.4 37 4.4 W 9 15 5 8 - - 0.0
03/12:00am 3.2 -1.6 -11.1 34 4.7 W 9 15 5 8 - - 0.0
 
Date/Time
EST
Temp
°C
App
Temp
°C
Dew
Point
°C
Rel
Hum
%
Delta-T
°C
Wind Press
QNH
hPa
Press
MSL
hPa
Rain since
9am
mm
Dir  Spd
km/h
Gust
km/h
Spd
kts
Gust
kts
02/11:30pm 3.3 -1.9 -11.0 34 4.7 W 11 15 6 8 - - 0.0
02/11:00pm 3.4 -2.2 -10.9 34 4.8 W 13 20 7 11 - - 0.0
02/10:30pm 3.1 -2.1 -10.8 35 4.6 W 11 20 6 11 - - 0.0
02/10:00pm 3.6 -2.0 -10.8 34 4.8 W 13 19 7 10 - - 0.0
02/09:30pm 3.6 -1.6 -11.1 33 4.9 W 11 20 6 11 - - 0.0
02/09:00pm 3.2 -1.7 -11.9 32 4.9 W 9 13 5 7 - - 0.0
02/08:30pm 3.3 -1.9 -11.0 34 4.7 W 11 15 6 8 - - 0.0
02/08:00pm 3.6 -1.2 -5.8 50 3.4 WNW 11 15 6 8 - - 0.0
02/07:30pm 3.1 -1.3 -5.5 53 3.3 WNW 9 13 5 7 - - 0.0
02/07:00pm 3.1 -0.9 -7.9 44 4.0 NW 6 9 3 5 - - 0.0
02/06:30pm 2.9 -1.0 -6.5 50 3.5 NW 6 9 3 5 - - 0.0
02/06:00pm 3.2 -0.8 -5.4 53 3.1 WNW 7 9 4 5 - - 0.0
02/05:30pm 3.1 -1.2 -10.8 35 4.6 WNW 6 9 3 5 - - 0.0
02/05:00pm 3.7 -0.3 -5.5 51 3.4 WNW 7 11 4 6 - - 0.0
02/04:30pm 4.4 0.6 -3.4 57 3.0 WNW 7 11 4 6 - - 0.0
02/04:00pm 5.4 2.0 -2.4 57 3.2 WNW 6 9 3 5 - - 0.0
02/03:30pm 6.2 2.6 -2.4 54 3.5 WNW 7 11 4 6 - - 0.0
02/03:00pm 6.1 2.1 -2.0 56 3.3 WNW 9 13 5 7 - - 0.0
02/02:30pm 7.3 3.5 -3.8 45 4.4 WNW 7 11 4 6 - - 0.0
02/02:00pm 8.2 4.4 -5.6 37 5.3 W 6 9 3 5 - - 0.0
02/01:30pm 8.0 4.2 -5.4 38 5.2 WNW 6 11 3 6 - - 0.0
02/01:00pm 8.4 4.6 -5.8 36 5.5 WNW 6 11 3 6 - - 0.0
02/12:30pm 9.9 6.9 -8.7 26 6.8 CALM 0 4 0 2 - - 0.0
02/12:00pm 8.8 5.4 -9.1 27 6.4 NNW 2 4 1 2 - - 0.0
02/11:30am 8.4 4.8 -12.6 21 6.9 SSW 2 6 1 3 - - 0.0
02/11:00am 8.2 4.6 -12.8 21 6.8 NNE 2 4 1 2 - - 0.0
02/10:30am 6.8 3.3 -10.9 27 5.9 NE 2 4 1 2 - - 0.0
02/10:00am 7.5 4.0 -10.7 26 6.2 ESE 2 6 1 3 - - 0.0
02/09:30am 5.2 1.9 -13.2 25 6.0 CALM 0 2 0 1 - - 0.0
02/09:00am 2.5 -1.1 -12.9 31 4.8 SW 2 6 1 3 - - 0.0
02/08:30am 1.4 -1.9 -14.2 30 4.6 CALM 0 2 0 1 - - 0.0
02/08:00am -0.6 -4.7 -13.8 36 3.7 SW 4 9 2 5 - - 0.0
02/07:30am -0.7 -4.8 -14.2 35 3.7 S 4 9 2 5 - - 0.0
02/07:00am -0.4 -4.9 -14.0 35 3.8 WSW 6 17 3 9 - - 0.0
02/06:30am 1.1 -4.0 -14.5 30 4.5 SW 9 15 5 8 - - 0.0
02/06:00am 2.6 -4.1 -17.5 21 5.5 WSW 17 28 9 15 - - 0.0
02/05:30am -0.5 -4.9 -10.9 45 3.2 SW 7 19 4 10 - - 0.0
02/05:00am 1.6 -4.9 -13.7 31 4.5 W 17 28 9 15 - - 0.0
02/04:30am 1.0 -6.0 -12.0 37 4.0 W 20 32 11 17 - - 0.0
02/04:00am 1.0 -6.0 -11.4 39 3.9 W 20 30 11 16 - - 0.0
02/03:30am 1.1 -5.9 -12.3 36 4.1 W 20 30 11 16 - - 0.0
02/03:00am -0.1 -5.2 -10.0 47 3.1 WSW 11 19 6 10 - - 0.0
02/02:30am 0.5 -4.6 -9.8 46 3.3 SW 11 24 6 13 - - 0.0
02/02:00am -0.1 -3.9 -10.0 47 3.1 WSW 4 13 2 7 - - 0.0
02/01:30am 0.9 -3.9 -10.2 43 3.6 WSW 9 20 5 11 - - 0.0
02/01:00am 1.4 -4.2 -11.0 39 3.9 WSW 13 30 7 16 - - 0.0
02/12:30am 1.3 -3.6 -11.4 38 4.0 WSW 9 24 5 13 - - 0.0
02/12:00am 1.7 -4.7 -11.1 38 4.1 WSW 17 32 9 17 - - 0.0
 
Date/Time
EST
Temp
°C
App
Temp
°C
Dew
Point
°C
Rel
Hum
%
Delta-T
°C
Wind Press
QNH
hPa
Press
MSL
hPa
Rain since
9am
mm
Dir  Spd
km/h
Gust
km/h
Spd
kts
Gust
kts
01/11:30pm 1.9 -4.9 -11.9 35 4.3 WSW 19 32 10 17 - - 0.0
01/11:00pm 2.1 -4.3 -11.7 35 4.4 WSW 17 32 9 17 - - 0.0
01/10:30pm 2.1 -3.2 -12.5 33 4.5 WSW 11 22 6 12 - - 0.0

Other formats

Comma delimited format used in spreadsheet applications
http://www.bom.gov.au/fwo/IDN60801/IDN60801.94915.axf

JavaScript Object Notation format (JSON) in row-major order
http://www.bom.gov.au/fwo/IDN60801/IDN60801.94915.json

Data quality

Most of these data are generated automatically and are frequently updated. Quality checks on data are not normally performed. It is possible for incorrect values to appear. Refer to information at About Latest Weather Observations and please check the disclaimer before using these data.